sensor_id;sensor_type;location;lat;lon;timestamp;P1;durP1;ratioP1;P2;durP2;ratioP2
5199;SDS011;2619;47.868;11.892;2023-02-26T00:00:28;2.40;;;1.30;;
5199;SDS011;2619;47.868;11.892;2023-02-26T00:02:54;2.07;;;0.93;;
5199;SDS011;2619;47.868;11.892;2023-02-26T00:05:20;3.30;;;1.47;;
5199;SDS011;2619;47.868;11.892;2023-02-26T00:07:45;2.67;;;1.23;;
5199;SDS011;2619;47.868;11.892;2023-02-26T00:10:12;3.00;;;1.23;;
5199;SDS011;2619;47.868;11.892;2023-02-26T00:12:38;3.27;;;1.73;;
5199;SDS011;2619;47.868;11.892;2023-02-26T00:15:04;2.60;;;1.30;;
5199;SDS011;2619;47.868;11.892;2023-02-26T00:20:07;2.20;;;1.13;;
5199;SDS011;2619;47.868;11.892;2023-02-26T00:22:34;2.43;;;1.30;;
5199;SDS011;2619;47.868;11.892;2023-02-26T00:25:00;2.70;;;1.30;;
5199;SDS011;2619;47.868;11.892;2023-02-26T00:27:25;2.70;;;1.30;;
5199;SDS011;2619;47.868;11.892;2023-02-26T00:29:51;3.20;;;1.53;;
5199;SDS011;2619;47.868;11.892;2023-02-26T00:32:17;2.10;;;1.20;;
5199;SDS011;2619;47.868;11.892;2023-02-26T00:34:46;2.60;;;1.40;;
5199;SDS011;2619;47.868;11.892;2023-02-26T00:37:18;3.20;;;1.27;;
5199;SDS011;2619;47.868;11.892;2023-02-26T00:42:45;3.70;;;1.50;;
5199;SDS011;2619;47.868;11.892;2023-02-26T00:45:11;2.70;;;1.50;;
5199;SDS011;2619;47.868;11.892;2023-02-26T00:50:17;2.63;;;1.30;;
5199;SDS011;2619;47.868;11.892;2023-02-26T00:52:51;2.80;;;1.47;;
5199;SDS011;2619;47.868;11.892;2023-02-26T00:55:23;3.40;;;1.47;;
5199;SDS011;2619;47.868;11.892;2023-02-26T00:57:49;3.00;;;1.63;;
5199;SDS011;2619;47.868;11.892;2023-02-26T01:00:15;3.27;;;1.77;;
5199;SDS011;2619;47.868;11.892;2023-02-26T01:02:41;3.57;;;2.03;;
5199;SDS011;2619;47.868;11.892;2023-02-26T01:05:07;2.10;;;1.20;;
5199;SDS011;2619;47.868;11.892;2023-02-26T01:07:49;2.20;;;1.13;;
5199;SDS011;2619;47.868;11.892;2023-02-26T01:10:39;2.67;;;1.47;;
5199;SDS011;2619;47.868;11.892;2023-02-26T01:13:05;3.40;;;1.70;;
5199;SDS011;2619;47.868;11.892;2023-02-26T01:15:31;3.23;;;1.80;;
5199;SDS011;2619;47.868;11.892;2023-02-26T01:18:02;4.77;;;2.33;;
5199;SDS011;2619;47.868;11.892;2023-02-26T01:20:38;3.27;;;1.70;;
5199;SDS011;2619;47.868;11.892;2023-02-26T01:23:11;3.33;;;1.93;;
5199;SDS011;2619;47.868;11.892;2023-02-26T01:25:46;2.50;;;1.30;;
5199;SDS011;2619;47.868;11.892;2023-02-26T01:28:24;2.77;;;1.60;;
5199;SDS011;2619;47.868;11.892;2023-02-26T01:30:54;5.27;;;2.47;;
5199;SDS011;2619;47.868;11.892;2023-02-26T01:33:26;4.73;;;2.20;;
5199;SDS011;2619;47.868;11.892;2023-02-26T01:41:23;4.20;;;2.50;;
5199;SDS011;2619;47.868;11.892;2023-02-26T01:49:34;4.87;;;2.80;;
5199;SDS011;2619;47.868;11.892;2023-02-26T01:52:02;5.70;;;3.40;;
5199;SDS011;2619;47.868;11.892;2023-02-26T01:54:40;4.37;;;2.70;;
5199;SDS011;2619;47.868;11.892;2023-02-26T01:57:15;4.20;;;2.80;;
5199;SDS011;2619;47.868;11.892;2023-02-26T01:59:43;6.07;;;3.03;;
5199;SDS011;2619;47.868;11.892;2023-02-26T02:02:11;4.10;;;2.70;;
5199;SDS011;2619;47.868;11.892;2023-02-26T02:04:38;4.83;;;2.83;;
5199;SDS011;2619;47.868;11.892;2023-02-26T02:07:05;5.17;;;3.00;;
5199;SDS011;2619;47.868;11.892;2023-02-26T02:09:31;6.60;;;3.77;;
5199;SDS011;2619;47.868;11.892;2023-02-26T02:20:25;5.50;;;2.90;;
5199;SDS011;2619;47.868;11.892;2023-02-26T02:31:14;5.97;;;3.43;;
5199;SDS011;2619;47.868;11.892;2023-02-26T02:33:54;6.83;;;3.20;;
5199;SDS011;2619;47.868;11.892;2023-02-26T02:36:35;5.40;;;2.93;;
5199;SDS011;2619;47.868;11.892;2023-02-26T02:39:10;8.20;;;3.20;;
5199;SDS011;2619;47.868;11.892;2023-02-26T02:41:48;6.23;;;2.57;;
5199;SDS011;2619;47.868;11.892;2023-02-26T02:44:21;5.37;;;3.20;;
5199;SDS011;2619;47.868;11.892;2023-02-26T02:46:50;5.37;;;2.73;;
5199;SDS011;2619;47.868;11.892;2023-02-26T02:49:21;4.60;;;2.60;;
5199;SDS011;2619;47.868;11.892;2023-02-26T02:52:14;5.50;;;2.77;;
5199;SDS011;2619;47.868;11.892;2023-02-26T02:55:05;3.30;;;2.27;;
5199;SDS011;2619;47.868;11.892;2023-02-26T02:57:45;4.53;;;2.67;;
5199;SDS011;2619;47.868;11.892;2023-02-26T03:00:29;4.17;;;2.57;;
5199;SDS011;2619;47.868;11.892;2023-02-26T03:05:50;4.83;;;2.90;;
5199;SDS011;2619;47.868;11.892;2023-02-26T03:08:17;5.50;;;3.17;;
5199;SDS011;2619;47.868;11.892;2023-02-26T03:10:46;4.47;;;3.10;;
5199;SDS011;2619;47.868;11.892;2023-02-26T03:13:16;3.53;;;2.60;;
5199;SDS011;2619;47.868;11.892;2023-02-26T03:18:21;4.30;;;2.00;;
5199;SDS011;2619;47.868;11.892;2023-02-26T03:21:16;3.70;;;2.40;;
5199;SDS011;2619;47.868;11.892;2023-02-26T03:23:53;5.57;;;3.10;;
5199;SDS011;2619;47.868;11.892;2023-02-26T03:26:39;4.10;;;2.33;;
5199;SDS011;2619;47.868;11.892;2023-02-26T03:29:11;5.33;;;2.90;;
5199;SDS011;2619;47.868;11.892;2023-02-26T03:31:58;4.50;;;2.40;;
5199;SDS011;2619;47.868;11.892;2023-02-26T03:34:27;3.50;;;2.20;;
5199;SDS011;2619;47.868;11.892;2023-02-26T03:37:03;4.07;;;2.30;;
5199;SDS011;2619;47.868;11.892;2023-02-26T03:39:40;3.53;;;1.93;;
5199;SDS011;2619;47.868;11.892;2023-02-26T03:42:11;4.47;;;2.50;;
5199;SDS011;2619;47.868;11.892;2023-02-26T03:44:53;5.80;;;2.97;;
5199;SDS011;2619;47.868;11.892;2023-02-26T03:47:25;4.20;;;2.20;;
5199;SDS011;2619;47.868;11.892;2023-02-26T03:49:54;4.57;;;2.40;;
5199;SDS011;2619;47.868;11.892;2023-02-26T03:52:24;5.03;;;2.47;;
5199;SDS011;2619;47.868;11.892;2023-02-26T03:54:54;3.50;;;2.40;;
5199;SDS011;2619;47.868;11.892;2023-02-26T03:57:31;5.37;;;2.77;;
5199;SDS011;2619;47.868;11.892;2023-02-26T03:59:56;4.10;;;2.37;;
5199;SDS011;2619;47.868;11.892;2023-02-26T04:02:27;5.77;;;2.20;;
5199;SDS011;2619;47.868;11.892;2023-02-26T04:07:46;4.83;;;2.70;;
5199;SDS011;2619;47.868;11.892;2023-02-26T04:10:14;7.63;;;2.90;;
5199;SDS011;2619;47.868;11.892;2023-02-26T04:12:42;4.23;;;2.30;;
5199;SDS011;2619;47.868;11.892;2023-02-26T04:15:08;3.70;;;2.20;;
5199;SDS011;2619;47.868;11.892;2023-02-26T04:17:34;4.50;;;2.37;;
5199;SDS011;2619;47.868;11.892;2023-02-26T04:20:00;6.23;;;3.10;;
5199;SDS011;2619;47.868;11.892;2023-02-26T04:22:25;4.03;;;2.30;;
5199;SDS011;2619;47.868;11.892;2023-02-26T04:24:51;3.57;;;1.90;;
5199;SDS011;2619;47.868;11.892;2023-02-26T04:27:16;3.43;;;2.47;;
5199;SDS011;2619;47.868;11.892;2023-02-26T04:29:42;5.00;;;2.70;;
5199;SDS011;2619;47.868;11.892;2023-02-26T04:32:07;4.10;;;2.57;;
5199;SDS011;2619;47.868;11.892;2023-02-26T04:34:33;5.23;;;2.43;;
5199;SDS011;2619;47.868;11.892;2023-02-26T04:36:59;6.93;;;2.40;;
5199;SDS011;2619;47.868;11.892;2023-02-26T04:39:24;3.60;;;2.43;;
5199;SDS011;2619;47.868;11.892;2023-02-26T04:41:50;5.20;;;2.47;;
5199;SDS011;2619;47.868;11.892;2023-02-26T04:44:15;5.33;;;2.60;;
5199;SDS011;2619;47.868;11.892;2023-02-26T04:46:41;4.73;;;2.40;;
5199;SDS011;2619;47.868;11.892;2023-02-26T04:49:07;3.30;;;2.23;;
5199;SDS011;2619;47.868;11.892;2023-02-26T04:51:32;4.47;;;2.40;;
5199;SDS011;2619;47.868;11.892;2023-02-26T04:53:58;3.80;;;2.50;;
5199;SDS011;2619;47.868;11.892;2023-02-26T04:56:23;6.47;;;3.00;;
5199;SDS011;2619;47.868;11.892;2023-02-26T04:58:50;5.10;;;1.97;;
5199;SDS011;2619;47.868;11.892;2023-02-26T05:01:15;6.40;;;2.60;;
5199;SDS011;2619;47.868;11.892;2023-02-26T05:03:41;3.60;;;1.90;;
5199;SDS011;2619;47.868;11.892;2023-02-26T05:06:06;4.40;;;1.83;;
5199;SDS011;2619;47.868;11.892;2023-02-26T05:08:32;7.23;;;3.07;;
5199;SDS011;2619;47.868;11.892;2023-02-26T05:10:57;3.80;;;1.70;;
5199;SDS011;2619;47.868;11.892;2023-02-26T05:13:23;5.03;;;2.90;;
5199;SDS011;2619;47.868;11.892;2023-02-26T05:15:49;5.20;;;2.30;;
5199;SDS011;2619;47.868;11.892;2023-02-26T05:18:17;5.97;;;2.30;;
5199;SDS011;2619;47.868;11.892;2023-02-26T05:20:43;7.83;;;2.33;;
5199;SDS011;2619;47.868;11.892;2023-02-26T05:23:08;4.10;;;1.90;;
5199;SDS011;2619;47.868;11.892;2023-02-26T05:25:34;3.50;;;2.17;;
5199;SDS011;2619;47.868;11.892;2023-02-26T05:27:59;4.80;;;3.00;;
5199;SDS011;2619;47.868;11.892;2023-02-26T05:30:25;5.27;;;2.40;;
5199;SDS011;2619;47.868;11.892;2023-02-26T05:32:51;4.87;;;2.60;;
5199;SDS011;2619;47.868;11.892;2023-02-26T05:35:16;4.37;;;2.33;;
5199;SDS011;2619;47.868;11.892;2023-02-26T05:37:42;6.73;;;2.03;;
5199;SDS011;2619;47.868;11.892;2023-02-26T05:40:08;3.23;;;1.83;;
5199;SDS011;2619;47.868;11.892;2023-02-26T05:42:37;3.50;;;2.17;;
5199;SDS011;2619;47.868;11.892;2023-02-26T05:45:04;3.27;;;1.50;;
5199;SDS011;2619;47.868;11.892;2023-02-26T05:47:31;3.40;;;1.90;;
5199;SDS011;2619;47.868;11.892;2023-02-26T05:49:57;4.63;;;2.17;;
5199;SDS011;2619;47.868;11.892;2023-02-26T05:52:23;3.60;;;1.97;;
5199;SDS011;2619;47.868;11.892;2023-02-26T05:54:48;4.77;;;2.07;;
5199;SDS011;2619;47.868;11.892;2023-02-26T05:57:14;7.13;;;2.07;;
5199;SDS011;2619;47.868;11.892;2023-02-26T05:59:39;3.90;;;2.30;;
5199;SDS011;2619;47.868;11.892;2023-02-26T06:02:05;3.83;;;1.80;;
5199;SDS011;2619;47.868;11.892;2023-02-26T06:04:31;3.77;;;1.80;;
5199;SDS011;2619;47.868;11.892;2023-02-26T06:06:56;4.50;;;1.90;;
5199;SDS011;2619;47.868;11.892;2023-02-26T06:09:22;3.07;;;1.93;;
5199;SDS011;2619;47.868;11.892;2023-02-26T06:11:47;5.00;;;2.00;;
5199;SDS011;2619;47.868;11.892;2023-02-26T06:14:13;4.67;;;1.63;;
5199;SDS011;2619;47.868;11.892;2023-02-26T06:16:39;3.77;;;2.00;;
5199;SDS011;2619;47.868;11.892;2023-02-26T06:19:05;5.27;;;2.70;;
5199;SDS011;2619;47.868;11.892;2023-02-26T06:21:30;5.80;;;2.47;;
5199;SDS011;2619;47.868;11.892;2023-02-26T06:23:56;2.73;;;1.43;;
5199;SDS011;2619;47.868;11.892;2023-02-26T06:26:22;6.30;;;1.80;;
5199;SDS011;2619;47.868;11.892;2023-02-26T06:28:47;5.90;;;2.40;;
5199;SDS011;2619;47.868;11.892;2023-02-26T06:31:13;7.30;;;1.93;;
5199;SDS011;2619;47.868;11.892;2023-02-26T06:33:39;5.73;;;2.80;;
5199;SDS011;2619;47.868;11.892;2023-02-26T06:36:04;9.03;;;4.10;;
5199;SDS011;2619;47.868;11.892;2023-02-26T06:38:30;5.90;;;2.13;;
5199;SDS011;2619;47.868;11.892;2023-02-26T06:40:55;6.00;;;2.20;;
5199;SDS011;2619;47.868;11.892;2023-02-26T06:43:21;3.10;;;1.90;;
5199;SDS011;2619;47.868;11.892;2023-02-26T06:45:47;5.20;;;2.17;;
5199;SDS011;2619;47.868;11.892;2023-02-26T06:48:12;3.00;;;1.80;;
5199;SDS011;2619;47.868;11.892;2023-02-26T06:50:38;3.90;;;1.80;;
5199;SDS011;2619;47.868;11.892;2023-02-26T06:53:04;6.90;;;2.30;;
5199;SDS011;2619;47.868;11.892;2023-02-26T06:55:29;5.53;;;2.60;;
5199;SDS011;2619;47.868;11.892;2023-02-26T06:57:55;3.50;;;2.10;;
5199;SDS011;2619;47.868;11.892;2023-02-26T07:00:22;4.43;;;1.93;;
5199;SDS011;2619;47.868;11.892;2023-02-26T07:02:49;2.87;;;1.43;;
5199;SDS011;2619;47.868;11.892;2023-02-26T07:05:15;4.37;;;2.13;;
5199;SDS011;2619;47.868;11.892;2023-02-26T07:07:40;6.13;;;2.23;;
5199;SDS011;2619;47.868;11.892;2023-02-26T07:10:06;3.83;;;2.23;;
5199;SDS011;2619;47.868;11.892;2023-02-26T07:12:33;5.53;;;2.30;;
5199;SDS011;2619;47.868;11.892;2023-02-26T07:14:59;3.40;;;1.53;;
5199;SDS011;2619;47.868;11.892;2023-02-26T07:17:24;3.20;;;1.70;;
5199;SDS011;2619;47.868;11.892;2023-02-26T07:19:50;4.70;;;1.90;;
5199;SDS011;2619;47.868;11.892;2023-02-26T07:22:17;3.20;;;2.17;;
5199;SDS011;2619;47.868;11.892;2023-02-26T07:24:44;3.60;;;2.20;;
5199;SDS011;2619;47.868;11.892;2023-02-26T07:27:10;3.77;;;2.00;;
5199;SDS011;2619;47.868;11.892;2023-02-26T07:29:36;3.23;;;1.90;;
5199;SDS011;2619;47.868;11.892;2023-02-26T07:32:02;3.10;;;1.70;;
5199;SDS011;2619;47.868;11.892;2023-02-26T07:34:29;4.97;;;2.60;;
5199;SDS011;2619;47.868;11.892;2023-02-26T07:36:55;5.63;;;2.20;;
5199;SDS011;2619;47.868;11.892;2023-02-26T07:39:23;3.13;;;1.97;;
5199;SDS011;2619;47.868;11.892;2023-02-26T07:41:49;5.27;;;2.70;;
5199;SDS011;2619;47.868;11.892;2023-02-26T07:44:14;4.13;;;2.10;;
5199;SDS011;2619;47.868;11.892;2023-02-26T07:46:40;5.40;;;2.40;;
5199;SDS011;2619;47.868;11.892;2023-02-26T07:49:05;2.63;;;1.77;;
5199;SDS011;2619;47.868;11.892;2023-02-26T07:51:31;9.87;;;2.93;;
5199;SDS011;2619;47.868;11.892;2023-02-26T07:53:56;5.20;;;2.80;;
5199;SDS011;2619;47.868;11.892;2023-02-26T07:56:22;4.00;;;2.20;;
5199;SDS011;2619;47.868;11.892;2023-02-26T07:58:48;4.57;;;2.50;;
5199;SDS011;2619;47.868;11.892;2023-02-26T08:01:13;5.07;;;2.57;;
5199;SDS011;2619;47.868;11.892;2023-02-26T08:03:39;8.63;;;3.80;;
5199;SDS011;2619;47.868;11.892;2023-02-26T08:06:05;4.07;;;2.50;;
5199;SDS011;2619;47.868;11.892;2023-02-26T08:08:31;6.30;;;2.60;;
5199;SDS011;2619;47.868;11.892;2023-02-26T08:10:58;2.80;;;1.90;;
5199;SDS011;2619;47.868;11.892;2023-02-26T08:13:24;4.23;;;2.20;;
5199;SDS011;2619;47.868;11.892;2023-02-26T08:15:50;3.97;;;1.90;;
5199;SDS011;2619;47.868;11.892;2023-02-26T08:18:15;3.50;;;1.93;;
5199;SDS011;2619;47.868;11.892;2023-02-26T08:20:41;4.23;;;2.40;;
5199;SDS011;2619;47.868;11.892;2023-02-26T08:23:07;3.20;;;1.90;;
5199;SDS011;2619;47.868;11.892;2023-02-26T08:25:32;7.03;;;2.80;;
5199;SDS011;2619;47.868;11.892;2023-02-26T08:27:58;3.97;;;1.83;;
5199;SDS011;2619;47.868;11.892;2023-02-26T08:30:25;5.67;;;2.77;;
5199;SDS011;2619;47.868;11.892;2023-02-26T08:32:50;3.73;;;2.40;;
5199;SDS011;2619;47.868;11.892;2023-02-26T08:35:16;3.77;;;2.27;;
5199;SDS011;2619;47.868;11.892;2023-02-26T08:37:42;4.73;;;3.43;;
5199;SDS011;2619;47.868;11.892;2023-02-26T08:40:08;3.90;;;2.60;;
5199;SDS011;2619;47.868;11.892;2023-02-26T08:42:34;6.00;;;3.87;;
5199;SDS011;2619;47.868;11.892;2023-02-26T08:45:00;4.90;;;2.53;;
5199;SDS011;2619;47.868;11.892;2023-02-26T08:47:26;4.57;;;2.77;;
5199;SDS011;2619;47.868;11.892;2023-02-26T08:49:51;3.50;;;2.67;;
5199;SDS011;2619;47.868;11.892;2023-02-26T08:52:17;5.10;;;3.03;;
5199;SDS011;2619;47.868;11.892;2023-02-26T08:54:43;4.70;;;2.20;;
5199;SDS011;2619;47.868;11.892;2023-02-26T08:57:09;4.43;;;2.23;;
5199;SDS011;2619;47.868;11.892;2023-02-26T08:59:35;5.13;;;2.67;;
5199;SDS011;2619;47.868;11.892;2023-02-26T09:02:00;3.30;;;2.27;;
5199;SDS011;2619;47.868;11.892;2023-02-26T09:04:26;4.33;;;3.17;;
5199;SDS011;2619;47.868;11.892;2023-02-26T09:06:52;3.70;;;2.80;;
5199;SDS011;2619;47.868;11.892;2023-02-26T09:09:19;5.03;;;2.53;;
5199;SDS011;2619;47.868;11.892;2023-02-26T09:11:44;4.90;;;2.80;;
5199;SDS011;2619;47.868;11.892;2023-02-26T09:14:10;5.87;;;2.53;;
5199;SDS011;2619;47.868;11.892;2023-02-26T09:16:36;4.10;;;2.53;;
5199;SDS011;2619;47.868;11.892;2023-02-26T09:19:03;3.97;;;2.10;;
5199;SDS011;2619;47.868;11.892;2023-02-26T09:21:30;4.90;;;2.50;;
5199;SDS011;2619;47.868;11.892;2023-02-26T09:23:55;3.70;;;1.83;;
5199;SDS011;2619;47.868;11.892;2023-02-26T09:26:21;4.10;;;2.93;;
5199;SDS011;2619;47.868;11.892;2023-02-26T09:28:47;3.40;;;2.10;;
5199;SDS011;2619;47.868;11.892;2023-02-26T09:31:12;3.47;;;2.13;;
5199;SDS011;2619;47.868;11.892;2023-02-26T09:33:38;3.90;;;2.67;;
5199;SDS011;2619;47.868;11.892;2023-02-26T09:36:04;4.30;;;2.13;;
5199;SDS011;2619;47.868;11.892;2023-02-26T09:38:29;4.73;;;3.00;;
5199;SDS011;2619;47.868;11.892;2023-02-26T09:40:57;7.37;;;2.40;;
5199;SDS011;2619;47.868;11.892;2023-02-26T09:43:48;5.00;;;2.90;;
5199;SDS011;2619;47.868;11.892;2023-02-26T09:49:18;4.97;;;2.93;;
5199;SDS011;2619;47.868;11.892;2023-02-26T09:51:51;3.67;;;2.63;;
5199;SDS011;2619;47.868;11.892;2023-02-26T09:54:21;3.63;;;2.80;;
5199;SDS011;2619;47.868;11.892;2023-02-26T09:56:50;4.43;;;2.30;;
5199;SDS011;2619;47.868;11.892;2023-02-26T09:59:17;6.17;;;3.07;;
5199;SDS011;2619;47.868;11.892;2023-02-26T10:01:45;4.90;;;2.60;;
5199;SDS011;2619;47.868;11.892;2023-02-26T10:04:25;4.40;;;2.40;;
5199;SDS011;2619;47.868;11.892;2023-02-26T10:07:13;5.33;;;2.60;;
5199;SDS011;2619;47.868;11.892;2023-02-26T10:12:40;3.73;;;2.33;;
5199;SDS011;2619;47.868;11.892;2023-02-26T10:15:12;3.70;;;2.17;;
5199;SDS011;2619;47.868;11.892;2023-02-26T10:17:51;5.03;;;2.57;;
5199;SDS011;2619;47.868;11.892;2023-02-26T10:20:20;5.00;;;2.50;;
5199;SDS011;2619;47.868;11.892;2023-02-26T10:22:55;3.77;;;2.50;;
5199;SDS011;2619;47.868;11.892;2023-02-26T10:25:30;5.70;;;2.10;;
5199;SDS011;2619;47.868;11.892;2023-02-26T10:31:00;5.40;;;2.57;;
5199;SDS011;2619;47.868;11.892;2023-02-26T10:36:45;4.60;;;2.93;;
5199;SDS011;2619;47.868;11.892;2023-02-26T10:39:46;4.80;;;3.37;;
5199;SDS011;2619;47.868;11.892;2023-02-26T10:42:37;3.97;;;2.40;;
5199;SDS011;2619;47.868;11.892;2023-02-26T10:50:53;4.53;;;2.93;;
5199;SDS011;2619;47.868;11.892;2023-02-26T10:53:22;4.80;;;3.20;;
5199;SDS011;2619;47.868;11.892;2023-02-26T10:55:50;7.37;;;3.20;;
5199;SDS011;2619;47.868;11.892;2023-02-26T10:58:22;4.20;;;3.13;;
5199;SDS011;2619;47.868;11.892;2023-02-26T11:00:49;3.80;;;3.00;;
5199;SDS011;2619;47.868;11.892;2023-02-26T11:03:34;5.47;;;3.60;;
5199;SDS011;2619;47.868;11.892;2023-02-26T11:06:03;5.13;;;2.80;;
5199;SDS011;2619;47.868;11.892;2023-02-26T11:11:03;4.27;;;2.87;;
5199;SDS011;2619;47.868;11.892;2023-02-26T11:13:31;5.30;;;3.07;;
5199;SDS011;2619;47.868;11.892;2023-02-26T11:16:00;4.67;;;3.20;;
5199;SDS011;2619;47.868;11.892;2023-02-26T11:18:30;4.77;;;3.07;;
5199;SDS011;2619;47.868;11.892;2023-02-26T11:21:03;7.33;;;3.70;;
5199;SDS011;2619;47.868;11.892;2023-02-26T11:23:30;5.13;;;3.00;;
5199;SDS011;2619;47.868;11.892;2023-02-26T11:25:59;5.37;;;3.43;;
5199;SDS011;2619;47.868;11.892;2023-02-26T11:28:30;6.10;;;4.17;;
5199;SDS011;2619;47.868;11.892;2023-02-26T11:31:06;8.73;;;4.20;;
5199;SDS011;2619;47.868;11.892;2023-02-26T11:33:35;6.80;;;4.10;;
5199;SDS011;2619;47.868;11.892;2023-02-26T11:36:05;7.47;;;4.30;;
5199;SDS011;2619;47.868;11.892;2023-02-26T11:38:36;7.43;;;4.83;;
5199;SDS011;2619;47.868;11.892;2023-02-26T11:41:03;8.60;;;3.70;;
5199;SDS011;2619;47.868;11.892;2023-02-26T11:46:26;4.73;;;3.00;;
5199;SDS011;2619;47.868;11.892;2023-02-26T11:48:52;5.67;;;3.03;;
5199;SDS011;2619;47.868;11.892;2023-02-26T11:51:22;4.33;;;2.67;;
5199;SDS011;2619;47.868;11.892;2023-02-26T11:53:52;3.97;;;2.83;;
5199;SDS011;2619;47.868;11.892;2023-02-26T11:56:26;5.20;;;3.40;;
5199;SDS011;2619;47.868;11.892;2023-02-26T11:59:12;5.93;;;3.20;;
5199;SDS011;2619;47.868;11.892;2023-02-26T12:01:40;4.80;;;3.30;;
5199;SDS011;2619;47.868;11.892;2023-02-26T12:04:08;5.40;;;3.00;;
5199;SDS011;2619;47.868;11.892;2023-02-26T12:06:36;4.70;;;3.10;;
5199;SDS011;2619;47.868;11.892;2023-02-26T12:09:02;5.43;;;2.70;;
5199;SDS011;2619;47.868;11.892;2023-02-26T12:14:43;7.93;;;3.70;;
5199;SDS011;2619;47.868;11.892;2023-02-26T12:20:06;4.47;;;2.83;;
5199;SDS011;2619;47.868;11.892;2023-02-26T12:36:46;4.97;;;2.93;;
5199;SDS011;2619;47.868;11.892;2023-02-26T12:50:57;4.70;;;2.70;;
5199;SDS011;2619;47.868;11.892;2023-02-26T13:01:53;5.30;;;3.77;;
5199;SDS011;2619;47.868;11.892;2023-02-26T13:04:40;5.43;;;3.63;;
5199;SDS011;2619;47.868;11.892;2023-02-26T13:12:58;5.40;;;3.93;;
5199;SDS011;2619;47.868;11.892;2023-02-26T13:15:45;6.87;;;4.23;;
5199;SDS011;2619;47.868;11.892;2023-02-26T13:18:35;3.63;;;2.57;;
5199;SDS011;2619;47.868;11.892;2023-02-26T13:21:13;5.70;;;2.93;;
5199;SDS011;2619;47.868;11.892;2023-02-26T13:23:48;4.83;;;3.30;;
5199;SDS011;2619;47.868;11.892;2023-02-26T13:26:17;4.63;;;3.10;;
5199;SDS011;2619;47.868;11.892;2023-02-26T13:31:42;5.63;;;3.30;;
5199;SDS011;2619;47.868;11.892;2023-02-26T13:36:55;4.33;;;3.20;;
5199;SDS011;2619;47.868;11.892;2023-02-26T13:48:14;3.43;;;2.40;;
5199;SDS011;2619;47.868;11.892;2023-02-26T13:53:37;3.20;;;2.20;;
5199;SDS011;2619;47.868;11.892;2023-02-26T13:56:13;3.70;;;2.50;;
5199;SDS011;2619;47.868;11.892;2023-02-26T13:58:51;4.00;;;2.20;;
5199;SDS011;2619;47.868;11.892;2023-02-26T14:06:47;4.47;;;2.70;;
5199;SDS011;2619;47.868;11.892;2023-02-26T14:11:57;5.63;;;3.87;;
5199;SDS011;2619;47.868;11.892;2023-02-26T14:27:41;4.17;;;3.33;;
5199;SDS011;2619;47.868;11.892;2023-02-26T14:32:38;4.97;;;3.30;;
5199;SDS011;2619;47.868;11.892;2023-02-26T14:35:33;4.43;;;2.70;;
5199;SDS011;2619;47.868;11.892;2023-02-26T14:38:20;4.43;;;2.70;;
5199;SDS011;2619;47.868;11.892;2023-02-26T14:43:49;4.10;;;2.70;;
5199;SDS011;2619;47.868;11.892;2023-02-26T14:46:22;5.27;;;2.63;;
5199;SDS011;2619;47.868;11.892;2023-02-26T14:48:48;4.00;;;2.53;;
5199;SDS011;2619;47.868;11.892;2023-02-26T15:01:52;4.47;;;2.80;;
5199;SDS011;2619;47.868;11.892;2023-02-26T15:04:39;3.90;;;2.20;;
5199;SDS011;2619;47.868;11.892;2023-02-26T15:07:30;3.07;;;2.47;;
5199;SDS011;2619;47.868;11.892;2023-02-26T15:10:20;4.53;;;2.30;;
5199;SDS011;2619;47.868;11.892;2023-02-26T15:13:34;4.60;;;2.30;;
5199;SDS011;2619;47.868;11.892;2023-02-26T15:16:24;5.17;;;2.43;;
5199;SDS011;2619;47.868;11.892;2023-02-26T15:18:58;3.50;;;2.07;;
5199;SDS011;2619;47.868;11.892;2023-02-26T15:24:27;3.63;;;1.90;;
5199;SDS011;2619;47.868;11.892;2023-02-26T15:26:56;4.47;;;2.70;;
5199;SDS011;2619;47.868;11.892;2023-02-26T15:29:29;3.23;;;1.93;;
5199;SDS011;2619;47.868;11.892;2023-02-26T15:35:00;3.40;;;2.20;;
5199;SDS011;2619;47.868;11.892;2023-02-26T15:37:34;3.90;;;2.20;;
5199;SDS011;2619;47.868;11.892;2023-02-26T15:40:03;3.10;;;2.10;;
5199;SDS011;2619;47.868;11.892;2023-02-26T15:42:31;3.83;;;2.20;;
5199;SDS011;2619;47.868;11.892;2023-02-26T15:45:01;5.67;;;2.90;;
5199;SDS011;2619;47.868;11.892;2023-02-26T15:47:30;3.87;;;2.37;;
5199;SDS011;2619;47.868;11.892;2023-02-26T15:49:56;4.30;;;2.20;;
5199;SDS011;2619;47.868;11.892;2023-02-26T15:52:23;4.07;;;2.60;;
5199;SDS011;2619;47.868;11.892;2023-02-26T15:54:51;4.10;;;2.50;;
5199;SDS011;2619;47.868;11.892;2023-02-26T15:57:21;3.43;;;2.10;;
5199;SDS011;2619;47.868;11.892;2023-02-26T15:59:49;4.20;;;2.37;;
5199;SDS011;2619;47.868;11.892;2023-02-26T16:02:21;4.00;;;2.00;;
5199;SDS011;2619;47.868;11.892;2023-02-26T16:04:51;3.80;;;1.70;;
5199;SDS011;2619;47.868;11.892;2023-02-26T16:07:17;3.23;;;1.97;;
5199;SDS011;2619;47.868;11.892;2023-02-26T16:09:45;4.30;;;2.20;;
5199;SDS011;2619;47.868;11.892;2023-02-26T16:12:20;3.67;;;2.30;;
5199;SDS011;2619;47.868;11.892;2023-02-26T16:14:51;4.40;;;2.50;;
5199;SDS011;2619;47.868;11.892;2023-02-26T16:17:24;3.57;;;1.70;;
5199;SDS011;2619;47.868;11.892;2023-02-26T16:19:53;5.37;;;2.73;;
5199;SDS011;2619;47.868;11.892;2023-02-26T16:22:29;3.30;;;2.07;;
5199;SDS011;2619;47.868;11.892;2023-02-26T16:25:17;3.23;;;1.40;;
5199;SDS011;2619;47.868;11.892;2023-02-26T16:27:56;3.27;;;1.70;;
5199;SDS011;2619;47.868;11.892;2023-02-26T16:30:38;3.93;;;2.20;;
5199;SDS011;2619;47.868;11.892;2023-02-26T16:33:10;3.20;;;2.03;;
5199;SDS011;2619;47.868;11.892;2023-02-26T16:35:40;4.00;;;1.70;;
5199;SDS011;2619;47.868;11.892;2023-02-26T16:38:18;2.40;;;1.40;;
5199;SDS011;2619;47.868;11.892;2023-02-26T16:41:08;3.70;;;2.07;;
5199;SDS011;2619;47.868;11.892;2023-02-26T16:46:32;3.20;;;1.90;;
5199;SDS011;2619;47.868;11.892;2023-02-26T16:49:03;5.70;;;2.40;;
5199;SDS011;2619;47.868;11.892;2023-02-26T16:51:33;3.63;;;1.93;;
5199;SDS011;2619;47.868;11.892;2023-02-26T16:54:03;3.07;;;1.83;;
5199;SDS011;2619;47.868;11.892;2023-02-26T16:56:53;3.53;;;2.00;;
5199;SDS011;2619;47.868;11.892;2023-02-26T16:59:24;3.00;;;1.63;;
5199;SDS011;2619;47.868;11.892;2023-02-26T17:01:55;4.17;;;2.33;;
5199;SDS011;2619;47.868;11.892;2023-02-26T17:04:58;3.10;;;1.90;;
5199;SDS011;2619;47.868;11.892;2023-02-26T17:07:28;4.40;;;2.37;;
5199;SDS011;2619;47.868;11.892;2023-02-26T17:09:57;5.57;;;3.40;;
5199;SDS011;2619;47.868;11.892;2023-02-26T17:12:44;5.90;;;3.70;;
5199;SDS011;2619;47.868;11.892;2023-02-26T17:15:11;4.47;;;2.60;;
5199;SDS011;2619;47.868;11.892;2023-02-26T17:17:45;3.67;;;2.60;;
5199;SDS011;2619;47.868;11.892;2023-02-26T17:20:11;4.27;;;2.50;;
5199;SDS011;2619;47.868;11.892;2023-02-26T17:22:37;4.03;;;2.60;;
5199;SDS011;2619;47.868;11.892;2023-02-26T17:25:04;3.87;;;1.90;;
5199;SDS011;2619;47.868;11.892;2023-02-26T17:27:33;4.70;;;2.80;;
5199;SDS011;2619;47.868;11.892;2023-02-26T17:30:01;4.43;;;2.50;;
5199;SDS011;2619;47.868;11.892;2023-02-26T17:32:29;4.40;;;2.63;;
5199;SDS011;2619;47.868;11.892;2023-02-26T17:34:57;7.03;;;3.53;;
5199;SDS011;2619;47.868;11.892;2023-02-26T17:37:24;5.13;;;2.80;;
5199;SDS011;2619;47.868;11.892;2023-02-26T17:40:28;5.20;;;2.87;;
5199;SDS011;2619;47.868;11.892;2023-02-26T17:42:53;4.03;;;2.50;;
5199;SDS011;2619;47.868;11.892;2023-02-26T17:45:19;4.60;;;2.53;;
5199;SDS011;2619;47.868;11.892;2023-02-26T17:47:45;4.50;;;2.40;;
5199;SDS011;2619;47.868;11.892;2023-02-26T17:50:57;5.40;;;2.87;;
5199;SDS011;2619;47.868;11.892;2023-02-26T17:53:00;5.23;;;2.30;;
5199;SDS011;2619;47.868;11.892;2023-02-26T17:55:29;5.07;;;3.00;;
5199;SDS011;2619;47.868;11.892;2023-02-26T17:57:55;5.03;;;2.80;;
5199;SDS011;2619;47.868;11.892;2023-02-26T18:00:21;5.77;;;3.43;;
5199;SDS011;2619;47.868;11.892;2023-02-26T18:02:48;4.60;;;3.30;;
5199;SDS011;2619;47.868;11.892;2023-02-26T18:05:17;4.50;;;2.83;;
5199;SDS011;2619;47.868;11.892;2023-02-26T18:07:44;3.73;;;2.57;;
5199;SDS011;2619;47.868;11.892;2023-02-26T18:10:15;5.63;;;2.90;;
5199;SDS011;2619;47.868;11.892;2023-02-26T18:12:43;3.60;;;2.23;;
5199;SDS011;2619;47.868;11.892;2023-02-26T18:15:09;4.40;;;2.77;;